Time;durP1;ratioP1;P1;durP2;ratioP2;P2;SDS_P1;SDS_P2;PMS_P1;PMS_P2;Temp;Humidity;BMP_temperature;BMP_pressure;BME280_temperature;BME280_humidity;BME280_pressure;Samples;Min_cycle;Max_cycle;Signal;HPM_P1;HPM_P2
2022/12/12 00:01:37;;;;;;;45.40;20.80;;;-0.10;99.90;;;;;;5023705;28;20049;-56
2022/12/12 00:04:03;;;;;;;43.50;19.63;;;-0.10;99.90;;;;;;5019647;28;20092;-53
2022/12/12 00:06:29;;;;;;;41.55;18.45;;;-0.10;99.90;;;;;;5022141;28;20063;-53
2022/12/12 00:08:55;;;;;;;44.63;19.80;;;-0.10;99.90;;;;;;5023004;28;20041;-53
2022/12/12 00:11:23;;;;;;;43.67;19.92;;;-0.10;99.90;;;;;;5023498;28;20040;-52
2022/12/12 00:13:48;;;;;;;45.53;20.33;;;-0.10;99.90;;;;;;5021470;28;20041;-54
2022/12/12 00:16:14;;;;;;;42.42;19.75;;;-0.10;99.90;;;;;;5022972;28;20072;-55
2022/12/12 00:18:40;;;;;;;46.47;19.60;;;-0.10;99.90;;;;;;5023077;28;20045;-54
2022/12/12 00:21:14;;;;;;;49.25;21.38;;;-0.10;99.90;;;;;;5021798;28;20048;-55
2022/12/12 00:23:40;;;;;;;50.60;19.92;;;-0.10;99.90;;;;;;5021486;28;20110;-55
2022/12/12 00:26:11;;;;;;;52.22;19.80;;;-0.10;99.90;;;;;;5022956;28;20564;-55
2022/12/12 00:28:37;;;;;;;46.92;21.30;;;-0.10;99.90;;;;;;5021117;28;20412;-53
2022/12/12 00:31:02;;;;;;;49.70;20.45;;;-0.10;99.90;;;;;;5023469;28;20037;-52
2022/12/12 00:33:28;;;;;;;48.45;20.45;;;-0.10;99.90;;;;;;5023083;28;20660;-55
2022/12/12 00:35:54;;;;;;;47.20;19.77;;;-0.10;99.90;;;;;;5021612;28;20045;-55
2022/12/12 00:38:22;;;;;;;50.92;21.92;;;-0.10;99.90;;;;;;5022479;28;20091;-55
2022/12/12 00:40:49;;;;;;;45.55;20.80;;;-0.10;99.90;;;;;;5023289;28;20084;-55
2022/12/12 00:43:15;;;;;;;50.83;19.73;;;-0.10;99.90;;;;;;5021837;28;20052;-55
2022/12/12 00:45:40;;;;;;;52.33;21.08;;;-0.10;99.90;;;;;;5026412;28;20041;-52
2022/12/12 00:48:06;;;;;;;50.15;22.02;;;-0.10;99.90;;;;;;5026336;28;20067;-53
2022/12/12 00:50:33;;;;;;;53.13;21.90;;;-0.10;99.90;;;;;;5026101;28;20045;-53
2022/12/12 00:52:59;;;;;;;48.28;20.67;;;-0.10;99.90;;;;;;5026081;28;20049;-53
2022/12/12 00:55:26;;;;;;;50.53;20.95;;;-0.10;99.90;;;;;;5026599;28;20230;-54
2022/12/12 00:57:52;;;;;;;49.42;20.85;;;-0.10;99.90;;;;;;5025687;28;20051;-55
2022/12/12 01:00:19;;;;;;;50.78;21.17;;;-0.10;99.90;;;;;;5024318;28;20038;-55
2022/12/12 01:02:45;;;;;;;48.80;21.65;;;-0.10;99.90;;;;;;5026744;28;20049;-54
2022/12/12 01:05:12;;;;;;;49.50;22.75;;;-0.10;99.90;;;;;;5025416;28;20083;-52
2022/12/12 01:07:37;;;;;;;46.55;21.23;;;-0.10;99.90;;;;;;5025925;28;20052;-57
2022/12/12 01:10:04;;;;;;;50.10;20.83;;;-0.10;99.90;;;;;;5025884;28;20068;-53
2022/12/12 01:12:30;;;;;;;47.10;20.23;;;-0.10;99.90;;;;;;5025905;28;20033;-56
2022/12/12 01:14:56;;;;;;;47.85;20.73;;;-0.10;99.90;;;;;;5025228;28;20511;-54
2022/12/12 01:17:22;;;;;;;54.95;21.52;;;-0.10;99.90;;;;;;5026628;28;20050;-56
2022/12/12 01:19:47;;;;;;;50.08;23.00;;;-0.10;99.90;;;;;;5025085;28;20052;-54
2022/12/12 01:22:13;;;;;;;49.78;22.25;;;-0.10;99.90;;;;;;5023598;28;20087;-54
2022/12/12 01:24:38;;;;;;;44.22;19.35;;;-0.10;99.90;;;;;;5026092;28;20049;-56
2022/12/12 01:27:04;;;;;;;44.45;20.05;;;-0.10;99.90;;;;;;5026231;28;20037;-53
2022/12/12 01:29:31;;;;;;;46.70;20.33;;;-0.10;99.90;;;;;;5025155;28;20041;-55
2022/12/12 01:31:57;;;;;;;40.33;18.25;;;-0.10;99.90;;;;;;5025363;28;20088;-52
2022/12/12 01:34:22;;;;;;;47.03;20.33;;;-0.10;99.90;;;;;;5025742;28;20609;-50
2022/12/12 01:36:48;;;;;;;43.13;18.90;;;-0.10;99.90;;;;;;5019554;28;20038;-53
2022/12/12 01:39:14;;;;;;;42.22;18.75;;;-0.10;99.90;;;;;;5025885;28;20047;-52
2022/12/12 01:41:40;;;;;;;46.58;19.60;;;-0.10;99.90;;;;;;5024458;28;20111;-54
2022/12/12 01:44:36;;;;;;;44.22;18.67;;;-0.10;99.90;;;;;;5024054;28;20057;-54
2022/12/12 01:47:02;;;;;;;49.08;20.25;;;-0.10;99.90;;;;;;5025637;28;20520;-54
2022/12/12 01:49:28;;;;;;;46.42;20.35;;;-0.10;99.90;;;;;;5023613;28;20063;-49
2022/12/12 01:52:01;;;;;;;46.78;19.45;;;-0.10;99.90;;;;;;5024628;28;20146;-53
2022/12/12 01:54:31;;;;;;;44.63;19.10;;;-0.20;99.90;;;;;;5025653;28;20553;-55
2022/12/12 01:56:59;;;;;;;45.55;19.85;;;-0.20;99.90;;;;;;5024211;28;20144;-54
2022/12/12 01:59:27;;;;;;;46.47;20.13;;;-0.20;99.90;;;;;;5024101;28;20045;-55
2022/12/12 02:01:53;;;;;;;43.95;19.70;;;-0.10;99.90;;;;;;5025635;28;20280;-55
2022/12/12 02:04:21;;;;;;;44.35;19.08;;;-0.20;99.90;;;;;;5024713;28;20120;-55
2022/12/12 02:06:48;;;;;;;46.75;19.92;;;-0.20;99.90;;;;;;5024166;28;20091;-54
2022/12/12 02:09:15;;;;;;;43.53;19.98;;;-0.20;99.90;;;;;;5025204;28;20117;-53
2022/12/12 02:11:45;;;;;;;47.58;19.88;;;-0.20;99.90;;;;;;5024446;28;20053;-53
2022/12/12 02:14:13;;;;;;;40.25;19.23;;;-0.20;99.90;;;;;;5022549;28;20401;-53
2022/12/12 02:16:52;;;;;;;42.08;19.38;;;-0.20;99.90;;;;;;5024843;28;20052;-53
2022/12/12 02:19:52;;;;;;;46.67;19.20;;;-0.20;99.90;;;;;;5024583;28;20049;-51
2022/12/12 02:22:46;;;;;;;44.25;19.85;;;-0.20;99.90;;;;;;5014902;28;20053;-52
2022/12/12 02:25:42;;;;;;;49.55;19.05;;;-0.20;99.90;;;;;;5025122;28;20053;-50
2022/12/12 02:28:21;;;;;;;38.50;17.88;;;-0.20;99.90;;;;;;5023072;28;20044;-55
2022/12/12 02:31:18;;;;;;;48.60;20.73;;;-0.20;99.90;;;;;;5024408;28;20056;-53
2022/12/12 02:33:50;;;;;;;55.28;23.95;;;-0.30;99.90;;;;;;5024675;28;20045;-53
2022/12/12 02:36:44;;;;;;;51.70;23.55;;;-0.30;99.90;;;;;;5022954;28;20424;-53
2022/12/12 02:39:20;;;;;;;55.85;24.92;;;-0.30;99.90;;;;;;5024052;28;20684;-52
2022/12/12 02:42:13;;;;;;;52.20;23.30;;;-0.30;99.90;;;;;;5024754;28;20045;-51
2022/12/12 02:45:10;;;;;;;52.05;22.30;;;-0.30;99.90;;;;;;5022634;28;20041;-51
2022/12/12 02:47:41;;;;;;;48.75;21.50;;;-0.30;99.90;;;;;;5015942;28;20045;-52
2022/12/12 02:50:12;;;;;;;43.33;21.50;;;-0.30;99.90;;;;;;5023921;28;20037;-54
2022/12/12 02:52:40;;;;;;;41.97;19.23;;;-0.30;99.90;;;;;;5023730;28;20092;-55
2022/12/12 02:55:07;;;;;;;46.78;19.80;;;-0.30;99.90;;;;;;5024398;28;20053;-54
2022/12/12 02:57:32;;;;;;;45.25;20.58;;;-0.30;99.90;;;;;;5023905;28;20128;-53
2022/12/12 03:00:03;;;;;;;46.15;19.65;;;-0.30;99.90;;;;;;5023436;28;20128;-53
2022/12/12 03:09:27;;;;;;;47.78;20.45;;;-0.30;99.90;;;;;;5024084;28;20049;-52
2022/12/12 03:12:00;;;;;;;46.97;20.08;;;-0.30;99.90;;;;;;5024458;28;20487;-51
2022/12/12 03:14:37;;;;;;;47.65;22.35;;;-0.30;99.90;;;;;;5022037;28;20049;-54
2022/12/12 03:17:28;;;;;;;47.78;20.55;;;-0.30;99.90;;;;;;5024077;28;20041;-55
2022/12/12 03:20:10;;;;;;;48.47;21.27;;;-0.30;99.90;;;;;;5012098;28;20072;-54
2022/12/12 03:22:53;;;;;;;41.47;19.73;;;-0.30;99.90;;;;;;5023361;28;20091;-52
2022/12/12 03:25:26;;;;;;;46.97;19.77;;;-0.30;99.90;;;;;;5023714;28;20037;-54
2022/12/12 03:28:13;;;;;;;45.20;20.38;;;-0.30;99.90;;;;;;5023091;28;20654;-53
2022/12/12 03:30:45;;;;;;;41.83;19.45;;;-0.30;99.90;;;;;;5023893;28;20040;-54
2022/12/12 03:33:26;;;;;;;47.15;20.25;;;-0.30;99.90;;;;;;5023525;28;20033;-56
2022/12/12 03:36:01;;;;;;;45.30;19.40;;;-0.30;99.90;;;;;;5022870;28;20047;-55
2022/12/12 03:38:35;;;;;;;44.50;20.38;;;-0.30;99.90;;;;;;5022127;28;20110;-55
2022/12/12 03:41:05;;;;;;;42.40;19.55;;;-0.20;99.90;;;;;;5023796;28;20034;-51
2022/12/12 03:43:36;;;;;;;44.38;19.55;;;-0.30;99.90;;;;;;5022256;28;20049;-54
2022/12/12 03:46:23;;;;;;;42.15;18.92;;;-0.30;99.90;;;;;;5022887;28;20045;-54
2022/12/12 03:48:56;;;;;;;47.10;19.52;;;-0.30;99.90;;;;;;5003915;28;20131;-51
2022/12/12 03:51:30;;;;;;;42.47;19.70;;;-0.20;99.90;;;;;;5022252;28;20076;-55
2022/12/12 03:54:24;;;;;;;42.67;18.90;;;-0.20;99.90;;;;;;5022943;28;20041;-53
2022/12/12 03:56:58;;;;;;;40.35;19.88;;;-0.20;99.90;;;;;;5023152;28;20053;-52
2022/12/12 03:59:30;;;;;;;43.50;18.58;;;-0.20;99.90;;;;;;5022151;28;20084;-52
2022/12/12 04:02:18;;;;;;;46.60;20.42;;;-0.20;99.90;;;;;;5023287;28;20160;-54
2022/12/12 04:04:59;;;;;;;42.58;20.35;;;-0.20;99.90;;;;;;5021953;28;20051;-55
2022/12/12 04:07:37;;;;;;;45.08;19.50;;;-0.20;99.90;;;;;;5022569;28;20044;-54
2022/12/12 04:13:14;;;;;;;42.63;19.58;;;-0.20;99.90;;;;;;5022301;28;20041;-50
2022/12/12 04:15:57;;;;;;;43.42;20.33;;;-0.20;99.90;;;;;;5022388;28;20053;-52
2022/12/12 04:18:47;;;;;;;42.58;18.65;;;-0.20;99.90;;;;;;5022331;28;20046;-52
2022/12/12 04:24:40;;;;;;;42.63;19.45;;;-0.20;99.90;;;;;;5023035;28;20099;-54
2022/12/12 04:27:25;;;;;;;40.92;18.92;;;-0.20;99.90;;;;;;5022984;28;20052;-53
2022/12/12 04:30:06;;;;;;;42.65;19.00;;;-0.20;99.90;;;;;;5021145;28;20045;-51
2022/12/12 04:32:37;;;;;;;40.10;17.80;;;-0.30;99.90;;;;;;5022643;28;20575;-55
2022/12/12 04:35:09;;;;;;;48.10;21.13;;;-0.30;99.90;;;;;;5021695;28;20034;-52
2022/12/12 04:37:51;;;;;;;39.67;18.02;;;-0.30;99.90;;;;;;5022548;28;20091;-53
2022/12/12 04:40:34;;;;;;;41.75;19.20;;;-0.30;99.90;;;;;;5023274;28;20104;-52
2022/12/12 04:43:07;;;;;;;37.28;18.52;;;-0.30;99.90;;;;;;5022006;28;20041;-51
2022/12/12 04:45:41;;;;;;;41.10;17.55;;;-0.30;99.90;;;;;;5021903;28;20131;-51
2022/12/12 04:48:11;;;;;;;39.23;18.37;;;-0.30;99.90;;;;;;5022845;28;20123;-52
2022/12/12 04:50:38;;;;;;;37.70;17.45;;;-0.30;99.90;;;;;;5022165;28;20434;-52
2022/12/12 04:53:09;;;;;;;37.55;18.05;;;-0.30;99.90;;;;;;5022106;28;20677;-52
2022/12/12 04:55:39;;;;;;;41.80;18.98;;;-0.30;99.90;;;;;;5022701;28;20550;-55
2022/12/12 04:58:06;;;;;;;39.25;17.73;;;-0.30;99.90;;;;;;5022047;28;20552;-54
2022/12/12 05:00:43;;;;;;;37.58;17.63;;;-0.30;99.90;;;;;;5022533;28;20083;-53
2022/12/12 05:03:19;;;;;;;39.35;17.02;;;-0.30;99.90;;;;;;5022907;28;20068;-54
2022/12/12 05:05:56;;;;;;;40.75;18.58;;;-0.30;99.90;;;;;;5021958;28;20480;-56
2022/12/12 05:08:29;;;;;;;39.80;18.33;;;-0.30;99.90;;;;;;5022155;28;20062;-55
2022/12/12 05:11:00;;;;;;;40.30;17.63;;;-0.30;99.90;;;;;;5023291;28;20037;-54
2022/12/12 05:13:32;;;;;;;37.20;17.50;;;-0.30;99.90;;;;;;5021721;28;20048;-51
2022/12/12 05:16:01;;;;;;;32.45;16.98;;;-0.30;99.90;;;;;;5022633;28;20033;-53
2022/12/12 05:18:26;;;;;;;39.40;18.17;;;-0.30;99.90;;;;;;5022996;28;20087;-51
2022/12/12 05:20:53;;;;;;;39.88;18.15;;;-0.30;99.90;;;;;;5022190;28;20381;-52
2022/12/12 05:23:19;;;;;;;36.88;17.80;;;-0.30;99.90;;;;;;5022227;28;20030;-54
2022/12/12 05:25:45;;;;;;;35.72;17.27;;;-0.30;99.90;;;;;;5023102;28;20046;-56
2022/12/12 05:28:10;;;;;;;36.55;18.17;;;-0.30;99.90;;;;;;5019114;28;20084;-56
2022/12/12 05:30:36;;;;;;;36.50;17.00;;;-0.30;99.90;;;;;;5023429;28;20099;-51
2022/12/12 05:33:02;;;;;;;37.22;17.17;;;-0.30;99.90;;;;;;5026645;28;20378;-54
2022/12/12 05:35:27;;;;;;;39.38;18.15;;;-0.30;99.90;;;;;;5040361;28;20859;-56
2022/12/12 05:37:53;;;;;;;34.38;17.30;;;-0.30;99.90;;;;;;5025700;28;20044;-55
2022/12/12 05:40:20;;;;;;;36.78;18.08;;;-0.30;99.90;;;;;;5026835;28;20092;-53
2022/12/12 05:42:45;;;;;;;38.25;17.13;;;-0.40;99.90;;;;;;5025212;28;20045;-50
2022/12/12 05:45:11;;;;;;;36.42;16.70;;;-0.40;99.90;;;;;;5024924;28;20516;-53
2022/12/12 05:47:37;;;;;;;37.67;18.27;;;-0.40;99.90;;;;;;5025601;28;20615;-55
2022/12/12 05:50:04;;;;;;;39.28;18.95;;;-0.40;99.90;;;;;;5024715;28;20500;-53
2022/12/12 05:52:29;;;;;;;37.22;18.00;;;-0.40;99.90;;;;;;5024978;28;20501;-52
2022/12/12 05:54:55;;;;;;;41.13;20.27;;;-0.30;99.90;;;;;;5025267;28;20371;-55
2022/12/12 05:57:20;;;;;;;43.42;19.13;;;-0.40;99.90;;;;;;5025839;28;20475;-53
2022/12/12 05:59:46;;;;;;;41.50;19.05;;;-0.40;99.90;;;;;;5024321;28;20496;-52
2022/12/12 06:02:13;;;;;;;43.90;20.23;;;-0.40;99.90;;;;;;5025330;28;20095;-52
2022/12/12 06:04:39;;;;;;;41.88;19.00;;;-0.40;99.90;;;;;;5022802;28;20729;-55
2022/12/12 06:07:04;;;;;;;37.63;17.30;;;-0.40;99.90;;;;;;5025022;28;20084;-51
2022/12/12 06:09:30;;;;;;;41.05;17.90;;;-0.40;99.90;;;;;;5025454;28;20038;-55
2022/12/12 06:11:57;;;;;;;38.67;18.33;;;-0.40;99.90;;;;;;5023878;28;20045;-50
2022/12/12 06:14:24;;;;;;;44.40;20.52;;;-0.40;99.90;;;;;;5023239;28;20038;-52
2022/12/12 06:16:50;;;;;;;43.20;20.17;;;-0.40;99.90;;;;;;5024731;28;20061;-53
2022/12/12 06:19:18;;;;;;;42.13;19.77;;;-0.40;99.90;;;;;;5024711;28;20508;-55
2022/12/12 06:21:43;;;;;;;38.80;18.63;;;-0.40;99.90;;;;;;5023833;28;20050;-54
2022/12/12 06:24:09;;;;;;;40.85;18.60;;;-0.40;99.90;;;;;;5024454;28;20034;-56
2022/12/12 06:26:34;;;;;;;42.13;19.65;;;-0.40;99.90;;;;;;5024756;28;20557;-55
2022/12/12 06:29:00;;;;;;;45.20;20.52;;;-0.40;99.90;;;;;;5021961;28;20292;-56
2022/12/12 06:31:25;;;;;;;41.83;20.15;;;-0.40;99.90;;;;;;5024654;28;20037;-53
2022/12/12 06:33:51;;;;;;;44.65;22.23;;;-0.40;99.90;;;;;;5025262;28;20400;-54
2022/12/12 06:36:23;;;;;;;44.05;20.13;;;-0.50;99.90;;;;;;5023384;28;20045;-53
2022/12/12 06:38:54;;;;;;;38.90;18.85;;;-0.40;99.90;;;;;;5023204;28;20075;-55
2022/12/12 06:41:22;;;;;;;35.63;17.88;;;-0.40;99.90;;;;;;5024406;28;20452;-53
2022/12/12 06:43:48;;;;;;;40.10;17.95;;;-0.50;99.90;;;;;;5023011;28;20129;-55
2022/12/12 06:46:17;;;;;;;37.38;18.80;;;-0.50;99.90;;;;;;5024366;28;20599;-56
2022/12/12 06:48:44;;;;;;;41.75;18.83;;;-0.50;99.90;;;;;;5024768;28;20044;-56
2022/12/12 06:51:14;;;;;;;36.40;17.60;;;-0.50;99.90;;;;;;5022653;28;20045;-54
2022/12/12 06:53:40;;;;;;;40.15;18.67;;;-0.50;99.90;;;;;;5024024;28;20440;-56
2022/12/12 06:56:08;;;;;;;39.40;18.92;;;-0.50;99.90;;;;;;5024362;28;20273;-52
2022/12/12 06:58:34;;;;;;;39.20;19.33;;;-0.50;99.90;;;;;;5018973;28;20763;-55
2022/12/12 07:01:00;;;;;;;41.42;20.58;;;-0.50;99.90;;;;;;5023491;28;20107;-52
2022/12/12 07:03:26;;;;;;;43.83;20.65;;;-0.50;99.90;;;;;;5021807;28;20133;-56
2022/12/12 07:05:51;;;;;;;39.72;19.10;;;-0.50;99.90;;;;;;5020741;28;20502;-55
2022/12/12 07:08:17;;;;;;;37.70;18.00;;;-0.50;99.90;;;;;;5023134;28;20044;-56
2022/12/12 07:10:43;;;;;;;41.25;19.27;;;-0.50;99.90;;;;;;5024078;28;20045;-55
2022/12/12 07:13:09;;;;;;;39.35;18.73;;;-0.50;99.90;;;;;;5022735;28;20044;-58
2022/12/12 07:15:42;;;;;;;42.60;19.95;;;-0.50;99.90;;;;;;4998769;28;20051;-53
2022/12/12 07:18:07;;;;;;;38.00;18.35;;;-0.50;99.90;;;;;;5000102;28;20560;-54
2022/12/12 07:20:33;;;;;;;38.60;18.17;;;-0.50;99.90;;;;;;5007148;28;20042;-53
2022/12/12 07:22:58;;;;;;;43.25;17.80;;;-0.50;99.90;;;;;;5003438;28;20118;-53
2022/12/12 07:25:24;;;;;;;41.53;19.60;;;-0.50;99.90;;;;;;5002268;28;20041;-53
2022/12/12 07:27:50;;;;;;;39.95;18.42;;;-0.50;99.90;;;;;;5001580;28;20094;-55
2022/12/12 07:30:15;;;;;;;37.30;18.08;;;-0.50;99.90;;;;;;5004990;28;20411;-57
2022/12/12 07:32:41;;;;;;;36.97;18.70;;;-0.50;99.90;;;;;;5003279;28;20103;-54
2022/12/12 07:35:07;;;;;;;41.85;19.25;;;-0.50;99.90;;;;;;5004334;28;20533;-57
2022/12/12 07:37:32;;;;;;;39.83;18.95;;;-0.50;99.90;;;;;;5004599;28;20052;-55
2022/12/12 07:39:58;;;;;;;38.40;18.40;;;-0.50;99.90;;;;;;5003982;28;20771;-54
2022/12/12 07:42:24;;;;;;;42.28;19.25;;;-0.50;99.90;;;;;;4998980;28;20050;-55
2022/12/12 07:44:49;;;;;;;34.63;17.95;;;-0.50;99.90;;;;;;5000515;28;20887;-55
2022/12/12 07:47:15;;;;;;;38.78;18.73;;;-0.50;99.90;;;;;;5003343;28;20390;-55
2022/12/12 07:49:40;;;;;;;39.72;18.40;;;-0.50;99.90;;;;;;5002558;28;20045;-55
2022/12/12 07:52:06;;;;;;;40.08;18.33;;;-0.50;99.90;;;;;;5001827;28;20057;-57
2022/12/12 07:54:31;;;;;;;38.30;18.40;;;-0.50;99.90;;;;;;5000592;28;20364;-54
2022/12/12 07:56:59;;;;;;;35.15;17.55;;;-0.50;99.90;;;;;;5004201;28;20057;-55
2022/12/12 07:59:24;;;;;;;34.53;16.65;;;-0.50;99.90;;;;;;5001961;28;20073;-55
2022/12/12 08:01:50;;;;;;;32.40;16.65;;;-0.50;99.90;;;;;;4997058;28;20060;-57
2022/12/12 08:04:15;;;;;;;37.28;17.40;;;-0.50;99.90;;;;;;5000376;28;20041;-52
2022/12/12 08:06:41;;;;;;;35.95;17.40;;;-0.50;99.90;;;;;;5001853;28;20052;-54
2022/12/12 08:09:07;;;;;;;36.65;19.08;;;-0.50;99.90;;;;;;5004564;28;20034;-55
2022/12/12 08:11:32;;;;;;;38.95;18.73;;;-0.50;99.90;;;;;;5002985;28;20041;-54
2022/12/12 08:13:58;;;;;;;34.10;16.77;;;-0.50;99.90;;;;;;5000379;28;20049;-55
2022/12/12 08:16:26;;;;;;;36.42;18.27;;;-0.40;99.90;;;;;;5003926;28;20033;-52
2022/12/12 08:18:56;;;;;;;38.40;17.85;;;-0.40;99.90;;;;;;5004910;28;20349;-54
2022/12/12 08:21:22;;;;;;;37.72;17.35;;;-0.40;99.90;;;;;;5002310;28;20187;-54
2022/12/12 08:23:48;;;;;;;35.35;16.77;;;-0.40;99.90;;;;;;5001037;28;20104;-55
2022/12/12 08:26:15;;;;;;;35.13;17.05;;;-0.40;99.90;;;;;;5002832;28;21486;-52
2022/12/12 08:28:48;;;;;;;30.80;16.23;;;-0.40;99.90;;;;;;5002641;28;20053;-55
2022/12/12 08:31:17;;;;;;;36.72;17.13;;;-0.40;99.90;;;;;;5000861;28;20429;-54
2022/12/12 08:33:42;;;;;;;34.33;16.85;;;-0.40;99.90;;;;;;5000483;28;20066;-57
2022/12/12 08:36:17;;;;;;;32.88;17.10;;;-0.30;99.90;;;;;;5000976;28;20045;-53
2022/12/12 08:38:42;;;;;;;;;;;-0.30;99.90;;;;;;5004577;28;20053;-56
2022/12/12 08:41:09;;;;;;;30.10;16.02;;;-0.30;99.90;;;;;;5004727;28;20893;-55
2022/12/12 08:43:36;;;;;;;37.72;16.77;;;-0.30;99.90;;;;;;5020340;28;20037;-53
2022/12/12 08:46:03;;;;;;;32.95;16.38;;;-0.30;99.90;;;;;;5022468;28;20414;-55
2022/12/12 08:48:29;;;;;;;36.85;16.58;;;-0.30;99.90;;;;;;5023117;28;20048;-52
2022/12/12 08:50:55;;;;;;;34.97;17.92;;;-0.30;99.90;;;;;;5022277;28;20065;-54
2022/12/12 08:53:21;;;;;;;35.60;16.90;;;-0.20;99.90;;;;;;5022429;28;20531;-55
2022/12/12 08:55:47;;;;;;;36.08;17.23;;;-0.20;99.90;;;;;;5022544;28;20037;-51
2022/12/12 08:58:13;;;;;;;33.05;17.08;;;-0.20;99.90;;;;;;5020793;28;20033;-54
2022/12/12 09:00:39;;;;;;;36.47;16.45;;;-0.10;99.90;;;;;;5012683;28;20162;-52
2022/12/12 09:03:05;;;;;;;36.08;17.05;;;-0.10;99.90;;;;;;5002467;28;20424;-55
2022/12/12 09:05:30;;;;;;;36.55;17.15;;;-0.10;99.90;;;;;;5005042;28;20041;-57
2022/12/12 09:07:58;;;;;;;32.22;16.45;;;-0.10;99.90;;;;;;5006691;28;20513;-55
2022/12/12 09:10:24;;;;;;;34.58;16.45;;;-0.10;99.90;;;;;;5004608;28;20041;-54
2022/12/12 09:12:50;;;;;;;33.90;16.48;;;0.00;99.90;;;;;;5006155;28;20121;-53
2022/12/12 09:15:16;;;;;;;31.27;15.20;;;0.00;99.90;;;;;;5006554;28;20054;-55
2022/12/12 09:17:41;;;;;;;30.30;15.57;;;0.00;99.90;;;;;;5020578;28;20727;-55
2022/12/12 09:20:07;;;;;;;34.45;17.30;;;0.10;99.90;;;;;;5025209;28;20063;-53
2022/12/12 09:22:33;;;;;;;27.80;15.10;;;0.10;99.90;;;;;;5024923;28;20041;-57
2022/12/12 09:24:59;;;;;;;33.47;17.30;;;0.10;99.90;;;;;;5025987;28;20076;-56
2022/12/12 09:27:25;;;;;;;30.67;16.30;;;0.20;99.90;;;;;;5025387;28;20095;-57
2022/12/12 09:29:50;;;;;;;31.05;16.80;;;0.20;99.90;;;;;;5040700;28;20315;-53
2022/12/12 09:32:17;;;;;;;27.63;14.73;;;0.20;99.90;;;;;;5025909;28;20578;-55
2022/12/12 09:34:43;;;;;;;29.17;15.73;;;0.20;99.90;;;;;;5025895;28;20275;-55
2022/12/12 09:37:08;;;;;;;29.83;15.85;;;0.20;99.90;;;;;;5026192;28;20390;-57
2022/12/12 09:39:35;;;;;;;31.75;15.98;;;0.30;99.90;;;;;;5026528;28;20045;-56
2022/12/12 09:42:23;;;;;;;28.00;15.90;;;0.30;99.90;;;;;;5025685;28;20041;-53
2022/12/12 09:44:51;;;;;;;29.80;15.95;;;0.30;99.90;;;;;;5005781;28;20054;-56
2022/12/12 09:47:37;;;;;;;28.85;16.60;;;0.30;99.90;;;;;;5017686;28;20044;-57
2022/12/12 09:50:26;;;;;;;30.40;15.75;;;0.30;99.90;;;;;;5013519;28;20042;-56
2022/12/12 09:52:55;;;;;;;31.67;15.60;;;0.40;99.90;;;;;;5022450;28;20056;-57
2022/12/12 09:55:55;;;;;;;31.83;16.60;;;0.40;99.90;;;;;;5024813;28;20045;-56
2022/12/12 09:58:32;;;;;;;31.85;15.93;;;0.40;99.90;;;;;;5002460;28;20045;-58
2022/12/12 10:01:04;;;;;;;33.83;16.08;;;0.40;99.90;;;;;;5004119;28;20401;-57
2022/12/12 10:03:48;;;;;;;31.02;15.80;;;0.40;99.90;;;;;;5006583;28;20289;-57
2022/12/12 10:06:16;;;;;;;30.70;15.93;;;0.50;99.90;;;;;;5018789;28;20049;-56
2022/12/12 10:09:15;;;;;;;23.80;14.35;;;0.50;99.90;;;;;;5007062;28;20651;-57
2022/12/12 10:11:53;;;;;;;29.27;15.90;;;0.50;99.90;;;;;;5002886;28;20050;-56
2022/12/12 10:14:54;;;;;;;28.50;15.57;;;0.50;99.90;;;;;;5002007;28;20049;-58
2022/12/12 10:17:57;;;;;;;32.00;16.35;;;0.50;99.90;;;;;;5004396;28;20045;-57
2022/12/12 10:20:27;;;;;;;29.83;15.75;;;0.50;99.90;;;;;;4969909;28;20837;-57
2022/12/12 10:23:06;;;;;;;25.88;14.85;;;0.60;99.90;;;;;;4999578;28;20272;-55
2022/12/12 10:25:52;;;;;;;27.83;15.90;;;0.60;99.90;;;;;;5004535;28;20053;-56
2022/12/12 10:28:20;;;;;;;29.58;15.23;;;0.60;99.90;;;;;;5002147;28;20069;-57
2022/12/12 10:31:12;;;;;;;32.88;16.13;;;0.60;99.90;;;;;;5001138;28;20063;-57
2022/12/12 10:33:45;;;;;;;31.80;16.33;;;0.70;99.90;;;;;;5006884;28;20096;-58
2022/12/12 10:36:38;;;;;;;43.25;21.15;;;0.70;99.90;;;;;;5004134;28;20073;-58
2022/12/12 10:39:22;;;;;;;42.92;22.05;;;0.70;99.90;;;;;;5003034;28;20060;-58
2022/12/12 10:41:57;;;;;;;42.63;21.98;;;0.70;99.90;;;;;;5002679;28;20042;-58
2022/12/12 10:44:26;;;;;;;41.97;21.40;;;0.70;99.90;;;;;;4999633;28;20103;-57
2022/12/12 10:47:10;;;;;;;43.38;22.25;;;0.80;99.90;;;;;;5002901;28;20037;-56
2022/12/12 10:49:36;;;;;;;44.38;22.80;;;0.80;99.90;;;;;;5007734;28;20042;-57
2022/12/12 10:52:21;;;;;;;45.63;23.13;;;0.80;99.90;;;;;;5000041;28;20064;-57
2022/12/12 10:54:57;;;;;;;43.22;22.60;;;0.80;99.90;;;;;;5028648;28;20045;-58
2022/12/12 10:57:27;;;;;;;46.03;22.70;;;0.80;99.90;;;;;;5004057;28;20584;-58
2022/12/12 10:59:56;;;;;;;43.08;23.40;;;0.80;99.90;;;;;;5001501;28;20064;-58
2022/12/12 11:02:28;;;;;;;46.80;23.70;;;0.90;99.90;;;;;;5001815;28;20051;-57
2022/12/12 11:05:06;;;;;;;45.30;23.17;;;1.00;99.90;;;;;;5018017;28;20366;-57
2022/12/12 11:07:37;;;;;;;44.58;22.95;;;1.00;99.90;;;;;;5003979;28;20048;-58
2022/12/12 11:10:13;;;;;;;42.45;22.63;;;1.00;99.90;;;;;;5001296;28;20107;-58
2022/12/12 11:12:38;;;;;;;47.28;23.58;;;1.10;99.90;;;;;;5003780;28;20601;-57
2022/12/12 11:15:16;;;;;;;42.88;22.58;;;1.10;99.90;;;;;;5005237;28;20049;-58
2022/12/12 11:17:41;;;;;;;44.08;21.25;;;1.10;99.90;;;;;;5002122;28;20852;-57
2022/12/12 11:20:15;;;;;;;46.25;23.00;;;1.10;99.90;;;;;;5001386;28;20073;-58
2022/12/12 11:22:40;;;;;;;42.58;22.95;;;1.10;99.90;;;;;;5003299;28;20056;-56
2022/12/12 11:25:06;;;;;;;47.20;24.45;;;1.10;99.90;;;;;;5001440;28;20402;-57
2022/12/12 11:27:36;;;;;;;49.08;23.83;;;1.10;99.90;;;;;;5002189;28;20119;-58
2022/12/12 11:30:27;;;;;;;45.35;23.20;;;1.10;99.90;;;;;;5000118;28;20602;-57
2022/12/12 11:32:55;;;;;;;45.42;23.65;;;1.10;99.90;;;;;;5005016;28;20224;-57
2022/12/12 11:35:29;;;;;;;42.08;22.65;;;1.10;99.90;;;;;;5005404;28;21239;-58
2022/12/12 11:38:06;;;;;;;42.85;22.02;;;1.10;99.90;;;;;;5003993;28;20053;-58
2022/12/12 11:40:34;;;;;;;43.92;22.17;;;1.10;99.90;;;;;;5000370;28;20058;-58
2022/12/12 11:43:21;;;;;;;42.67;21.45;;;1.10;99.90;;;;;;5004872;28;20052;-57
2022/12/12 11:46:06;;;;;;;47.53;23.63;;;1.10;99.90;;;;;;5000812;28;20049;-58
2022/12/12 11:48:37;;;;;;;41.38;22.70;;;1.10;99.90;;;;;;5003602;28;20049;-58
2022/12/12 11:51:03;;;;;;;46.83;22.85;;;1.10;99.90;;;;;;5000986;28;20062;-57
2022/12/12 11:53:30;;;;;;;45.00;22.00;;;1.10;99.90;;;;;;5003682;28;20115;-58
2022/12/12 11:55:56;;;;;;;43.90;22.63;;;1.20;99.90;;;;;;5005899;28;20045;-58
2022/12/12 11:58:35;;;;;;;46.70;23.13;;;1.20;99.90;;;;;;5017016;28;20046;-58
2022/12/12 12:01:31;;;;;;;46.65;22.83;;;1.30;99.90;;;;;;5003275;28;20573;-56
2022/12/12 12:04:14;;;;;;;46.03;23.10;;;1.30;99.90;;;;;;5004564;28;20053;-58
2022/12/12 12:06:59;;;;;;;40.83;22.10;;;1.30;99.90;;;;;;5002833;28;20050;-58
2022/12/12 12:09:50;;;;;;;41.55;22.17;;;1.30;99.90;;;;;;5002970;28;21041;-57
2022/12/12 12:12:51;;;;;;;43.63;22.77;;;1.30;99.90;;;;;;4988587;28;20042;-58
2022/12/12 12:15:44;;;;;;;42.45;21.33;;;1.30;99.90;;;;;;5003884;28;20148;-58
2022/12/12 12:18:47;;;;;;;41.92;21.63;;;1.20;99.90;;;;;;5003058;28;20049;-58
2022/12/12 12:21:32;;;;;;;39.65;20.98;;;1.20;99.90;;;;;;5001918;28;20047;-57
2022/12/12 12:24:02;;;;;;;39.78;21.08;;;1.30;99.90;;;;;;5004384;28;20053;-58
2022/12/12 12:26:42;;;;;;;38.55;19.77;;;1.30;99.90;;;;;;5002515;28;20048;-57
2022/12/12 12:29:20;;;;;;;41.60;21.58;;;1.30;99.90;;;;;;5009128;28;21024;-58
2022/12/12 12:32:15;;;;;;;39.55;20.80;;;1.30;99.90;;;;;;5000025;28;20049;-58
2022/12/12 12:34:49;;;;;;;;;;;1.30;99.90;;;;;;5001862;28;20041;-58
2022/12/12 12:37:21;;;;;;;41.05;20.15;;;1.30;99.90;;;;;;5001967;28;20376;-58
2022/12/12 12:40:11;;;;;;;35.58;19.45;;;1.30;99.90;;;;;;5001409;28;20046;-58
2022/12/12 12:42:55;;;;;;;38.80;19.60;;;1.30;99.90;;;;;;5008427;28;20045;-58
2022/12/12 12:45:30;;;;;;;;;;;1.30;99.90;;;;;;5021525;28;20108;-59
2022/12/12 12:48:09;;;;;;;40.40;21.15;;;1.20;99.90;;;;;;5021097;28;19932;-58
2022/12/12 12:50:47;;;;;;;44.50;22.65;;;1.20;99.90;;;;;;5004049;28;20152;-58
2022/12/12 12:53:31;;;;;;;45.75;22.15;;;1.20;99.90;;;;;;5007069;28;20390;-58
2022/12/12 12:56:01;;;;;;;43.58;23.40;;;1.20;99.90;;;;;;5007255;28;20501;-58
2022/12/12 12:58:32;;;;;;;42.70;22.05;;;1.10;99.90;;;;;;5007051;28;20048;-58
2022/12/12 13:01:10;;;;;;;45.53;22.88;;;1.10;99.90;;;;;;5004599;28;20091;-59
2022/12/12 13:03:56;;;;;;;43.63;22.65;;;1.10;99.90;;;;;;5006543;28;20084;-59
2022/12/12 13:06:48;;;;;;;40.95;21.63;;;1.10;99.90;;;;;;5021501;28;20147;-58
2022/12/12 13:09:23;;;;;;;48.13;22.80;;;1.10;99.90;;;;;;5025146;28;20389;-59